createdAt,value
2022-12-01T00:02:25.194Z,4.09
2022-12-01T00:04:56.108Z,4.05
2022-12-01T00:07:26.482Z,4.03
2022-12-01T00:10:14.137Z,3.99
2022-12-01T00:12:44.580Z,3.99
2022-12-01T00:15:15.377Z,3.99
2022-12-01T00:17:47.562Z,3.98
2022-12-01T00:20:18.773Z,3.96
2022-12-01T00:22:49.898Z,3.94
2022-12-01T00:25:21.539Z,3.90
2022-12-01T00:27:52.861Z,3.87
2022-12-01T00:30:23.989Z,3.86
2022-12-01T00:32:54.449Z,3.84
2022-12-01T00:35:24.824Z,3.82
2022-12-01T00:37:55.338Z,3.79
2022-12-01T00:40:25.737Z,3.76
2022-12-01T00:42:56.112Z,3.74
2022-12-01T00:45:26.539Z,3.71
2022-12-01T00:47:56.959Z,3.67
2022-12-01T00:50:27.359Z,3.62
2022-12-01T00:52:57.745Z,3.57
2022-12-01T00:55:28.257Z,3.52
2022-12-01T00:57:58.686Z,3.47
2022-12-01T01:00:29.073Z,3.43
2022-12-01T01:02:59.521Z,3.38
2022-12-01T01:05:29.967Z,3.33
2022-12-01T01:08:00.405Z,3.28
2022-12-01T01:10:30.892Z,3.23
2022-12-01T01:13:01.337Z,3.20
2022-12-01T01:15:31.820Z,3.20
2022-12-01T01:18:02.263Z,3.20
2022-12-01T01:20:32.984Z,3.19
2022-12-01T01:23:03.478Z,3.20
2022-12-01T01:25:34.064Z,3.20
2022-12-01T01:28:04.656Z,3.20
2022-12-01T01:30:35.226Z,3.20
2022-12-01T01:33:05.796Z,3.20
2022-12-01T01:35:36.205Z,3.18
2022-12-01T01:38:06.628Z,3.16
2022-12-01T01:40:37.036Z,3.11
2022-12-01T01:43:13.132Z,3.09
2022-12-01T01:45:43.626Z,3.05
2022-12-01T01:48:16.094Z,3.00
2022-12-01T01:50:46.478Z,2.94
2022-12-01T01:53:17.692Z,2.87
2022-12-01T01:55:48.082Z,2.80
2022-12-01T01:58:18.562Z,2.74
2022-12-01T02:00:49.483Z,2.70
2022-12-01T02:03:20.809Z,2.65
2022-12-01T02:05:51.708Z,2.62
2022-12-01T02:08:22.214Z,2.61
2022-12-01T02:11:11.283Z,2.59
2022-12-01T02:13:49.120Z,2.58
2022-12-01T02:16:26.984Z,2.58
2022-12-01T02:19:03.866Z,2.58
2022-12-01T02:21:45.141Z,2.57
2022-12-01T02:24:50.351Z,2.58
2022-12-01T02:27:30.729Z,2.58
2022-12-01T02:30:16.449Z,2.58
2022-12-01T02:32:50.803Z,2.60
2022-12-01T02:35:28.854Z,2.62
2022-12-01T02:38:07.640Z,2.63
2022-12-01T02:40:44.080Z,2.63
2022-12-01T02:43:27.311Z,2.63
2022-12-01T02:45:57.214Z,2.62
2022-12-01T02:48:29.721Z,2.62
2022-12-01T02:51:02.492Z,2.62
2022-12-01T02:53:32.952Z,2.61
2022-12-01T02:56:06.114Z,2.59
2022-12-01T02:58:36.597Z,2.59
2022-12-01T03:01:17.987Z,2.59
2022-12-01T03:04:03.100Z,2.57
2022-12-01T03:06:40.794Z,2.55
2022-12-01T03:09:19.092Z,2.54
2022-12-01T03:11:56.805Z,2.55
2022-12-01T03:14:35.559Z,2.55
2022-12-01T03:17:09.043Z,2.54
2022-12-01T03:19:43.780Z,2.55
2022-12-01T03:22:17.146Z,2.56
2022-12-01T03:24:50.097Z,2.56
2022-12-01T03:27:19.767Z,2.56
2022-12-01T03:29:52.677Z,2.54
2022-12-01T03:32:28.409Z,2.50
2022-12-01T03:35:05.971Z,2.47
2022-12-01T03:37:39.074Z,2.46
2022-12-01T03:40:13.363Z,2.44
2022-12-01T03:42:47.692Z,2.43
2022-12-01T03:45:22.107Z,2.41
2022-12-01T03:47:53.073Z,2.39
2022-12-01T03:50:23.687Z,2.38
2022-12-01T03:53:03.566Z,2.39
2022-12-01T03:55:39.274Z,2.40
2022-12-01T03:58:12.168Z,2.42
2022-12-01T04:00:44.908Z,2.42
2022-12-01T04:03:21.022Z,2.43
2022-12-01T04:05:51.420Z,2.43
2022-12-01T04:08:25.623Z,2.46
2022-12-01T04:10:56.101Z,2.48
2022-12-01T04:13:26.829Z,2.51
2022-12-01T04:15:57.427Z,2.54
2022-12-01T04:18:29.601Z,2.55
2022-12-01T04:20:59.974Z,2.56
2022-12-01T04:23:47.810Z,2.55
2022-12-01T04:26:18.297Z,2.54
2022-12-01T04:28:48.854Z,2.53
2022-12-01T04:31:26.914Z,2.53
2022-12-01T04:33:58.255Z,2.54
2022-12-01T04:36:30.483Z,2.55
2022-12-01T04:39:02.314Z,2.57
2022-12-01T04:41:32.771Z,2.58
2022-12-01T04:44:06.479Z,2.59
2022-12-01T04:46:36.949Z,2.58
2022-12-01T04:49:07.818Z,2.57
2022-12-01T04:51:38.368Z,2.56
2022-12-01T04:54:10.004Z,2.56
2022-12-01T04:56:40.463Z,2.56
2022-12-01T04:59:11.343Z,2.53
2022-12-01T05:01:42.147Z,2.48
2022-12-01T05:04:15.500Z,2.43
2022-12-01T05:06:46.020Z,2.41
2022-12-01T05:09:18.056Z,2.39
2022-12-01T05:12:05.090Z,2.37
2022-12-01T05:14:35.902Z,2.33
2022-12-01T05:17:06.427Z,2.30
2022-12-01T05:19:54.313Z,2.29
2022-12-01T05:22:56.944Z,2.29
2022-12-01T05:25:15.196Z,2.28
2022-12-01T05:27:45.781Z,2.28
2022-12-01T05:30:16.480Z,2.29
2022-12-01T05:32:47.081Z,2.32
2022-12-01T05:35:17.513Z,2.33
2022-12-01T05:37:47.976Z,2.34
2022-12-01T05:40:19.147Z,2.35
2022-12-01T05:42:49.660Z,2.35
2022-12-01T05:45:20.112Z,2.35
2022-12-01T05:47:50.516Z,2.37
2022-12-01T05:50:20.978Z,2.37
2022-12-01T05:52:51.773Z,2.35
2022-12-01T05:55:22.154Z,2.33
2022-12-01T05:57:52.684Z,2.30
2022-12-01T06:00:23.824Z,2.28
2022-12-01T06:02:57.254Z,2.26
2022-12-01T06:05:27.724Z,2.27
2022-12-01T06:07:58.248Z,2.27
2022-12-01T06:10:28.670Z,2.30
2022-12-01T06:12:59.249Z,2.32
2022-12-01T06:15:29.943Z,2.33
2022-12-01T06:18:02.568Z,2.33
2022-12-01T06:20:34.335Z,2.32
2022-12-01T06:23:06.217Z,2.29
2022-12-01T06:25:36.699Z,2.27
2022-12-01T06:28:07.260Z,2.26
2022-12-01T06:30:37.655Z,2.24
2022-12-01T06:33:08.234Z,2.22
2022-12-01T06:35:38.773Z,2.21
2022-12-01T06:38:09.283Z,2.17
2022-12-01T06:40:39.692Z,2.16
2022-12-01T06:43:10.174Z,2.14
2022-12-01T06:45:41.103Z,2.13
2022-12-01T06:48:12.654Z,2.12
2022-12-01T06:50:43.247Z,2.11
2022-12-01T06:53:13.740Z,2.11
2022-12-01T06:55:44.123Z,2.10
2022-12-01T06:58:14.745Z,2.08
2022-12-01T07:00:50.495Z,2.06
2022-12-01T07:03:22.463Z,2.05
2022-12-01T07:05:58.976Z,2.05
2022-12-01T07:08:30.283Z,2.07
2022-12-01T07:11:01.973Z,2.09
2022-12-01T07:13:33.903Z,2.10
2022-12-01T07:16:05.227Z,2.10
2022-12-01T07:18:36.879Z,2.10
2022-12-01T07:21:10.774Z,2.09
2022-12-01T07:23:41.956Z,2.08
2022-12-01T07:26:13.624Z,2.11
2022-12-01T07:28:44.628Z,2.14
2022-12-01T07:31:17.050Z,2.14
2022-12-01T07:33:47.717Z,2.14
2022-12-01T07:36:18.424Z,2.14
2022-12-01T07:38:48.813Z,2.14
2022-12-01T07:41:20.579Z,2.14
2022-12-01T07:43:51.766Z,2.13
2022-12-01T07:46:24.468Z,2.13
2022-12-01T07:48:55.444Z,2.14
2022-12-01T07:51:26.849Z,2.15
2022-12-01T07:53:57.703Z,2.16
2022-12-01T07:56:28.040Z,2.13
2022-12-01T07:58:58.464Z,2.08
2022-12-01T08:01:28.858Z,2.02
2022-12-01T08:04:00.310Z,2.01
2022-12-01T08:06:30.702Z,1.98
2022-12-01T08:09:01.181Z,1.95
2022-12-01T08:11:31.529Z,1.95
2022-12-01T08:14:01.961Z,1.93
2022-12-01T08:16:32.585Z,1.94
2022-12-01T08:19:03.043Z,1.95
2022-12-01T08:21:33.770Z,1.95
2022-12-01T08:24:04.816Z,1.93
2022-12-01T08:26:35.384Z,1.89
2022-12-01T08:29:06.421Z,1.87
2022-12-01T08:31:38.079Z,1.87
2022-12-01T08:34:09.364Z,1.88
2022-12-01T08:36:40.704Z,1.90
2022-12-01T08:39:13.998Z,1.90
2022-12-01T08:41:44.398Z,1.86
2022-12-01T08:44:15.015Z,1.81
2022-12-01T08:46:45.517Z,1.77
2022-12-01T08:49:26.310Z,1.73
2022-12-01T08:51:57.156Z,1.69
2022-12-01T08:54:27.666Z,1.70
2022-12-01T08:56:58.180Z,1.72
2022-12-01T08:59:28.872Z,1.73
2022-12-01T09:02:03.675Z,1.72
2022-12-01T09:04:40.400Z,1.70
2022-12-01T09:07:15.023Z,1.69
2022-12-01T09:09:46.664Z,1.70
2022-12-01T09:12:17.246Z,1.73
2022-12-01T09:14:49.503Z,1.76
2022-12-01T09:17:20.695Z,1.79
2022-12-01T09:19:51.593Z,1.80
2022-12-01T09:22:22.224Z,1.80
2022-12-01T09:24:52.628Z,1.79
2022-12-01T09:27:23.299Z,1.78
2022-12-01T09:29:53.797Z,1.78
2022-12-01T09:32:24.272Z,1.77
2022-12-01T09:34:54.729Z,1.76
2022-12-01T09:37:25.121Z,1.77
2022-12-01T09:39:56.139Z,1.78
2022-12-01T09:42:33.820Z,1.79
2022-12-01T09:45:07.260Z,1.82
2022-12-01T09:47:38.098Z,1.90
2022-12-01T09:50:12.379Z,1.96
2022-12-01T09:52:46.875Z,2.01
2022-12-01T09:55:19.730Z,2.05
2022-12-01T09:57:51.422Z,2.06
2022-12-01T10:00:24.648Z,2.06
2022-12-01T10:03:00.840Z,2.06
2022-12-01T10:05:36.786Z,2.08
2022-12-01T10:08:13.255Z,2.12
2022-12-01T10:10:48.712Z,2.13
2022-12-01T10:13:23.309Z,2.15
2022-12-01T10:15:59.164Z,2.18
2022-12-01T10:18:39.822Z,2.22
2022-12-01T10:21:18.755Z,2.26
2022-12-01T10:24:22.200Z,2.32
2022-12-01T10:26:59.328Z,2.34
2022-12-01T10:29:38.081Z,2.33
2022-12-01T10:32:14.849Z,2.30
2022-12-01T10:34:48.316Z,2.26
2022-12-01T10:37:23.132Z,2.22
2022-12-01T10:39:55.862Z,2.23
2022-12-01T10:42:31.398Z,2.23
2022-12-01T10:45:29.047Z,2.23
2022-12-01T10:48:24.206Z,2.22
2022-12-01T10:50:58.118Z,2.24
2022-12-01T10:53:33.763Z,2.26
2022-12-01T10:56:13.851Z,2.23
2022-12-01T10:58:48.351Z,2.23
2022-12-01T11:01:24.170Z,2.21
2022-12-01T11:03:59.452Z,2.20
2022-12-01T11:13:03.585Z,2.29
2022-12-01T11:15:35.642Z,2.24
2022-12-01T11:18:07.895Z,2.19
2022-12-01T11:20:39.917Z,2.20
2022-12-01T11:23:25.414Z,2.21
2022-12-01T11:26:04.751Z,2.22
2022-12-01T11:28:36.078Z,2.21
2022-12-01T11:31:08.702Z,2.19
2022-12-01T11:33:48.275Z,2.22
2022-12-01T11:36:28.943Z,2.27
2022-12-01T11:39:01.332Z,2.33
2022-12-01T11:41:36.668Z,2.39
2022-12-01T11:44:22.438Z,2.46
2022-12-01T11:47:21.494Z,2.50
2022-12-01T11:49:54.770Z,2.53
2022-12-01T11:52:29.859Z,2.58
2022-12-01T11:55:08.405Z,2.62
2022-12-01T11:57:42.354Z,2.68
2022-12-01T12:00:18.382Z,2.70
2022-12-01T12:03:04.029Z,2.72
2022-12-01T12:05:51.446Z,2.72
2022-12-01T12:08:32.846Z,2.76
2022-12-01T12:11:09.740Z,2.80
2022-12-01T12:14:23.271Z,2.78
2022-12-01T12:17:14.305Z,2.71
2022-12-01T12:20:07.571Z,2.71
2022-12-01T12:22:47.678Z,2.70
2022-12-01T12:25:28.571Z,2.74
2022-12-01T12:28:20.868Z,2.79
2022-12-01T12:30:59.288Z,2.85
2022-12-01T12:33:43.084Z,2.93
2022-12-01T12:36:20.970Z,3.01
2022-12-01T12:39:01.901Z,3.01
2022-12-01T12:41:39.077Z,2.98
2022-12-01T12:44:40.363Z,2.95
2022-12-01T12:47:20.680Z,2.91
2022-12-01T12:49:59.482Z,2.91
2022-12-01T12:52:33.190Z,2.91
2022-12-01T12:55:03.633Z,2.92
2022-12-01T12:57:36.741Z,2.91
2022-12-01T13:00:14.822Z,2.85
2022-12-01T13:02:47.960Z,2.86
2022-12-01T13:05:28.739Z,2.87
2022-12-01T13:08:02.624Z,2.87
2022-12-01T13:10:37.899Z,2.91
2022-12-01T13:13:19.748Z,2.98
2022-12-01T13:15:53.398Z,3.10
2022-12-01T13:18:34.027Z,3.15
2022-12-01T13:21:05.211Z,3.16
2022-12-01T13:23:38.774Z,3.22
2022-12-01T13:26:13.902Z,3.31
2022-12-01T13:28:48.181Z,3.38
2022-12-01T13:31:23.945Z,3.43
2022-12-01T13:34:01.120Z,3.48
2022-12-01T13:36:48.409Z,3.50
2022-12-01T13:39:22.612Z,3.48
2022-12-01T13:48:56.760Z,3.51
2022-12-01T13:51:27.847Z,3.49
2022-12-01T13:54:02.703Z,3.48
2022-12-01T13:56:45.740Z,3.48
2022-12-01T13:59:48.288Z,3.47
2022-12-01T14:02:21.931Z,3.42
2022-12-01T14:04:52.564Z,3.39
2022-12-01T14:07:35.567Z,3.36
2022-12-01T14:10:26.404Z,3.31
2022-12-01T14:12:59.371Z,3.25
2022-12-01T14:15:45.497Z,3.26
2022-12-01T14:18:34.595Z,3.23
2022-12-01T14:21:06.760Z,3.20
2022-12-01T14:23:38.599Z,3.14
2022-12-01T14:26:19.654Z,3.08
2022-12-01T14:29:26.509Z,3.02
2022-12-01T14:32:26.136Z,2.97
2022-12-01T14:35:06.197Z,2.89
2022-12-01T14:37:42.641Z,2.80
2022-12-01T14:40:19.061Z,2.73
2022-12-01T14:43:10.535Z,2.67
2022-12-01T14:45:47.662Z,2.61
2022-12-01T14:48:19.636Z,2.59
2022-12-01T14:54:46.339Z,2.49
2022-12-01T14:57:22.528Z,2.47
2022-12-01T15:00:05.746Z,2.47
2022-12-01T15:02:34.734Z,2.50
2022-12-01T15:05:13.833Z,2.49
2022-12-01T15:07:45.614Z,2.49
2022-12-01T15:10:21.011Z,2.50
2022-12-01T15:12:52.066Z,2.51
2022-12-01T15:15:26.511Z,2.51
2022-12-01T15:17:57.950Z,2.52
2022-12-01T15:20:32.087Z,2.51
2022-12-01T15:23:09.032Z,2.47
2022-12-01T15:25:41.364Z,2.43
2022-12-01T15:28:16.477Z,2.39
2022-12-01T15:30:48.946Z,2.34
2022-12-01T15:33:26.948Z,2.31
2022-12-01T15:35:58.498Z,2.30
2022-12-01T15:38:31.331Z,2.30
2022-12-01T15:43:58.648Z,2.25
2022-12-01T15:46:34.271Z,2.21
2022-12-01T15:49:17.549Z,2.15
2022-12-01T15:51:46.517Z,2.11
2022-12-01T15:54:21.936Z,2.07
2022-12-01T15:56:55.723Z,2.02
2022-12-01T15:59:32.954Z,2.00
2022-12-01T16:02:08.836Z,1.98
2022-12-01T16:04:39.380Z,1.93
2022-12-01T16:07:11.145Z,1.89
2022-12-01T16:09:42.976Z,1.84
2022-12-01T16:12:24.717Z,1.82
2022-12-01T16:14:58.043Z,1.81
2022-12-01T16:17:29.827Z,1.81
2022-12-01T16:20:26.295Z,1.79
2022-12-01T16:22:59.641Z,1.75
2022-12-01T16:25:36.326Z,1.71
2022-12-01T16:28:08.619Z,1.71
2022-12-01T16:30:41.875Z,1.71
2022-12-01T16:33:19.207Z,1.71
2022-12-01T16:35:50.166Z,1.70
2022-12-01T16:38:22.691Z,1.70
2022-12-01T16:40:54.821Z,1.69
2022-12-01T16:43:27.520Z,1.69
2022-12-01T16:46:01.044Z,1.70
2022-12-01T16:48:31.926Z,1.71
2022-12-01T16:51:05.691Z,1.71
2022-12-01T16:53:36.370Z,1.69
2022-12-01T16:56:07.568Z,1.66
2022-12-01T16:58:37.991Z,1.63
2022-12-01T17:01:09.045Z,1.63
2022-12-01T17:03:39.666Z,1.64
2022-12-01T17:06:11.497Z,1.64
2022-12-01T17:08:41.883Z,1.63
2022-12-01T17:11:12.292Z,1.61
2022-12-01T17:13:43.112Z,1.59
2022-12-01T17:16:18.361Z,1.59
2022-12-01T17:18:49.146Z,1.61
2022-12-01T17:21:19.490Z,1.61
2022-12-01T17:23:49.928Z,1.60
2022-12-01T17:26:21.243Z,1.58
2022-12-01T17:28:51.722Z,1.57
2022-12-01T17:31:22.255Z,1.56
2022-12-01T17:33:52.862Z,1.56
2022-12-01T17:36:23.359Z,1.56
2022-12-01T17:38:53.752Z,1.55
2022-12-01T17:41:32.023Z,1.54
2022-12-01T17:44:04.362Z,1.53
2022-12-01T17:46:34.801Z,1.54
2022-12-01T17:49:09.223Z,1.56
2022-12-01T17:51:39.993Z,1.57
2022-12-01T17:54:10.555Z,1.57
2022-12-01T17:56:41.022Z,1.56
2022-12-01T17:59:11.661Z,1.54
2022-12-01T18:01:43.263Z,1.55
2022-12-01T18:04:13.859Z,1.56
2022-12-01T18:13:21.589Z,1.54
2022-12-01T18:15:52.455Z,1.49
2022-12-01T18:18:38.868Z,1.49
2022-12-01T18:21:10.926Z,1.47
2022-12-01T18:23:41.471Z,1.47
2022-12-01T18:26:16.071Z,1.48
2022-12-01T18:28:47.046Z,1.48
2022-12-01T18:31:18.661Z,1.48
2022-12-01T18:33:49.317Z,1.46
2022-12-01T18:36:22.035Z,1.43
2022-12-01T18:38:54.546Z,1.42
2022-12-01T18:41:25.053Z,1.41
2022-12-01T18:43:55.559Z,1.42
2022-12-01T18:46:25.968Z,1.42
2022-12-01T18:49:00.657Z,1.41
2022-12-01T18:51:32.212Z,1.40
2022-12-01T18:54:04.148Z,1.39
2022-12-01T18:56:36.950Z,1.39
2022-12-01T18:59:08.849Z,1.40
2022-12-01T19:01:40.660Z,1.42
2022-12-01T19:04:12.893Z,1.42
2022-12-01T19:06:44.502Z,1.40
2022-12-01T19:09:16.343Z,1.38
2022-12-01T19:11:49.001Z,1.36
2022-12-01T19:14:20.858Z,1.36
2022-12-01T19:16:51.314Z,1.36
2022-12-01T19:19:21.926Z,1.37
2022-12-01T19:21:53.105Z,1.35
2022-12-01T19:24:23.657Z,1.33
2022-12-01T19:26:56.073Z,1.31
2022-12-01T19:29:28.431Z,1.30
2022-12-01T19:44:14.459Z,1.32
2022-12-01T19:46:45.065Z,1.28
2022-12-01T19:49:15.573Z,1.30
2022-12-01T19:51:45.982Z,1.33
2022-12-01T19:54:20.045Z,1.35
2022-12-01T19:56:50.698Z,1.37
2022-12-01T19:59:21.238Z,1.38
2022-12-01T20:01:51.928Z,1.38
2022-12-01T20:04:23.786Z,1.39
2022-12-01T20:06:54.299Z,1.41
2022-12-01T20:09:24.812Z,1.46
2022-12-01T20:11:55.701Z,1.48
2022-12-01T20:14:26.193Z,1.47
2022-12-01T20:16:58.111Z,1.48
2022-12-01T20:19:29.077Z,1.48
2022-12-01T20:21:59.514Z,1.50
2022-12-01T20:24:30.037Z,1.52
2022-12-01T20:27:04.950Z,1.54
2022-12-01T20:29:35.422Z,1.55
2022-12-01T20:32:06.922Z,1.56
2022-12-01T20:34:38.025Z,1.55
2022-12-01T20:37:08.386Z,1.56
2022-12-01T20:39:41.298Z,1.58
2022-12-01T20:42:11.921Z,1.59
2022-12-01T20:44:42.411Z,1.59
2022-12-01T20:47:21.286Z,1.58
2022-12-01T20:49:55.512Z,1.55
2022-12-01T20:52:29.814Z,1.51
2022-12-01T20:55:00.353Z,1.51
2022-12-01T20:57:38.317Z,1.52
2022-12-01T21:00:13.094Z,1.53
2022-12-01T21:02:44.685Z,1.54
2022-12-01T21:05:15.551Z,1.53
2022-12-01T21:07:49.113Z,1.53
2022-12-01T21:10:20.404Z,1.54
2022-12-01T21:13:17.162Z,1.56
2022-12-01T21:16:03.610Z,1.59
2022-12-01T21:18:43.514Z,1.62
2022-12-01T21:21:25.005Z,1.63
2022-12-01T21:24:14.420Z,1.63
2022-12-01T21:26:52.158Z,1.65
2022-12-01T21:29:24.817Z,1.68
2022-12-01T21:31:57.608Z,1.70
2022-12-01T21:34:29.857Z,1.73
2022-12-01T21:37:03.166Z,1.73
2022-12-01T21:39:33.685Z,1.73
2022-12-01T21:42:17.559Z,1.73
2022-12-01T21:44:48.303Z,1.76
2022-12-01T21:47:22.552Z,1.77
2022-12-01T21:49:55.139Z,1.77
2022-12-01T21:52:30.132Z,1.78
2022-12-01T21:55:03.817Z,1.78
2022-12-01T21:57:43.003Z,1.76
2022-12-01T22:00:30.791Z,1.76
2022-12-01T22:03:11.128Z,1.76
2022-12-01T22:05:52.318Z,1.76
2022-12-01T22:08:35.713Z,1.74
2022-12-01T22:11:10.766Z,1.71
2022-12-01T22:13:46.401Z,1.67
2022-12-01T22:16:20.001Z,1.63
2022-12-01T22:18:53.034Z,1.62
2022-12-01T22:21:44.536Z,1.61
2022-12-01T22:24:28.819Z,1.59
2022-12-01T22:27:19.984Z,1.58
2022-12-01T22:29:52.463Z,1.54
2022-12-01T22:32:38.386Z,1.51
2022-12-01T22:35:26.046Z,1.47
2022-12-01T22:37:59.345Z,1.45
2022-12-01T22:40:37.771Z,1.45
2022-12-01T22:43:24.165Z,1.44
2022-12-01T22:46:04.127Z,1.43
2022-12-01T22:48:37.073Z,1.42
2022-12-01T22:51:20.365Z,1.40
2022-12-01T22:53:52.015Z,1.40
2022-12-01T22:56:33.247Z,1.42
2022-12-01T22:59:11.780Z,1.48
2022-12-01T23:01:46.648Z,1.51
2022-12-01T23:04:25.116Z,1.53
2022-12-01T23:07:09.693Z,1.54
2022-12-01T23:09:43.915Z,1.56
2022-12-01T23:12:31.453Z,1.57
2022-12-01T23:15:11.920Z,1.60
2022-12-01T23:17:42.415Z,1.62
2022-12-01T23:20:27.822Z,1.66
2022-12-01T23:22:59.831Z,1.67
2022-12-01T23:25:31.252Z,1.67
2022-12-01T23:28:04.687Z,1.65
2022-12-01T23:30:36.126Z,1.64
2022-12-01T23:33:14.246Z,1.65
2022-12-01T23:35:48.538Z,1.65
2022-12-01T23:38:21.744Z,1.65
2022-12-01T23:40:56.001Z,1.64
2022-12-01T23:43:28.598Z,1.63
2022-12-01T23:46:03.971Z,1.64
2022-12-01T23:48:38.738Z,1.66
2022-12-01T23:51:16.264Z,1.66
2022-12-01T23:53:46.982Z,1.65
2022-12-01T23:56:19.932Z,1.63
2022-12-01T23:58:50.540Z,1.62
